sensor_id;sensor_type;location;lat;lon;timestamp;P1;durP1;ratioP1;P2;durP2;ratioP2
38785;SDS011;24535;45.508;12.252;2022-09-25T03:11:11;1.10;;;0.90;;
38785;SDS011;24535;45.508;12.252;2022-09-25T03:14:06;1.42;;;0.82;;
38785;SDS011;24535;45.508;12.252;2022-09-25T04:27:46;0.75;;;0.40;;
38785;SDS011;24535;45.508;12.252;2022-09-25T04:33:26;1.13;;;0.52;;
38785;SDS011;24535;45.508;12.252;2022-09-25T04:36:10;0.65;;;0.47;;
38785;SDS011;24535;45.508;12.252;2022-09-25T04:38:54;0.77;;;0.70;;
38785;SDS011;24535;45.508;12.252;2022-09-25T04:44:44;0.70;;;0.63;;
38785;SDS011;24535;45.508;12.252;2022-09-25T04:47:53;1.15;;;0.77;;
38785;SDS011;24535;45.508;12.252;2022-09-25T05:56:42;2.08;;;0.95;;
38785;SDS011;24535;45.508;12.252;2022-09-25T06:02:04;1.85;;;1.50;;
38785;SDS011;24535;45.508;12.252;2022-09-25T06:04:40;1.52;;;1.40;;
38785;SDS011;24535;45.508;12.252;2022-09-25T06:07:50;4.18;;;1.10;;
38785;SDS011;24535;45.508;12.252;2022-09-25T06:22:24;3.22;;;1.50;;
38785;SDS011;24535;45.508;12.252;2022-09-25T07:35:53;1.50;;;0.77;;
38785;SDS011;24535;45.508;12.252;2022-09-25T07:38:36;3.35;;;0.77;;
38785;SDS011;24535;45.508;12.252;2022-09-25T07:41:03;1.13;;;0.60;;
38785;SDS011;24535;45.508;12.252;2022-09-25T07:43:53;0.80;;;0.52;;
38785;SDS011;24535;45.508;12.252;2022-09-25T07:52:34;1.00;;;0.50;;
38785;SDS011;24535;45.508;12.252;2022-09-25T07:55:20;1.13;;;0.60;;
38785;SDS011;24535;45.508;12.252;2022-09-25T07:58:01;0.55;;;0.50;;
38785;SDS011;24535;45.508;12.252;2022-09-25T08:00:32;1.77;;;0.50;;
38785;SDS011;24535;45.508;12.252;2022-09-25T08:06:32;2.92;;;1.00;;
38785;SDS011;24535;45.508;12.252;2022-09-25T08:09:02;2.00;;;0.50;;
38785;SDS011;24535;45.508;12.252;2022-09-25T08:17:09;0.52;;;0.30;;
38785;SDS011;24535;45.508;12.252;2022-09-25T08:22:27;0.13;;;0.13;;
38785;SDS011;24535;45.508;12.252;2022-09-25T08:25:03;0.40;;;0.20;;
38785;SDS011;24535;45.508;12.252;2022-09-25T08:27:35;1.67;;;0.30;;
38785;SDS011;24535;45.508;12.252;2022-09-25T08:39:03;0.60;;;0.25;;
38785;SDS011;24535;45.508;12.252;2022-09-25T08:44:59;0.52;;;0.10;;
38785;SDS011;24535;45.508;12.252;2022-09-25T08:53:16;0.20;;;0.10;;
38785;SDS011;24535;45.508;12.252;2022-09-25T09:11:26;0.38;;;0.13;;
38785;SDS011;24535;45.508;12.252;2022-09-25T09:41:30;0.30;;;0.20;;
38785;SDS011;24535;45.508;12.252;2022-09-25T10:49:13;0.55;;;0.30;;
38785;SDS011;24535;45.508;12.252;2022-09-25T10:55:41;0.60;;;0.40;;
38785;SDS011;24535;45.508;12.252;2022-09-25T11:10:56;1.00;;;0.50;;
38785;SDS011;24535;45.508;12.252;2022-09-25T11:49:31;3.55;;;0.95;;
38785;SDS011;24535;45.508;12.252;2022-09-25T11:52:13;1.98;;;0.52;;
38785;SDS011;24535;45.508;12.252;2022-09-25T12:00:28;2.83;;;0.60;;
38785;SDS011;24535;45.508;12.252;2022-09-25T12:09:20;1.30;;;0.50;;
38785;SDS011;24535;45.508;12.252;2022-09-25T12:18:42;1.63;;;0.80;;
38785;SDS011;24535;45.508;12.252;2022-09-25T12:36:34;2.95;;;0.80;;
38785;SDS011;24535;45.508;12.252;2022-09-25T12:39:20;2.42;;;0.55;;
38785;SDS011;24535;45.508;12.252;2022-09-25T12:48:23;0.85;;;0.40;;
38785;SDS011;24535;45.508;12.252;2022-09-25T13:03:10;0.98;;;0.70;;
38785;SDS011;24535;45.508;12.252;2022-09-25T13:05:49;0.52;;;0.30;;
38785;SDS011;24535;45.508;12.252;2022-09-25T13:18:17;0.98;;;0.63;;
38785;SDS011;24535;45.508;12.252;2022-09-25T13:20:48;0.70;;;0.57;;
38785;SDS011;24535;45.508;12.252;2022-09-25T13:26:23;0.82;;;0.40;;
38785;SDS011;24535;45.508;12.252;2022-09-25T13:29:20;4.13;;;0.70;;
38785;SDS011;24535;45.508;12.252;2022-09-25T13:32:13;1.30;;;0.50;;
38785;SDS011;24535;45.508;12.252;2022-09-25T13:35:17;1.35;;;0.57;;
38785;SDS011;24535;45.508;12.252;2022-09-25T13:37:45;1.17;;;0.73;;
38785;SDS011;24535;45.508;12.252;2022-09-25T13:40:38;1.98;;;0.60;;
38785;SDS011;24535;45.508;12.252;2022-09-25T13:45:46;1.10;;;0.50;;
38785;SDS011;24535;45.508;12.252;2022-09-25T13:51:45;1.00;;;0.47;;
38785;SDS011;24535;45.508;12.252;2022-09-25T14:01:48;0.90;;;0.50;;
38785;SDS011;24535;45.508;12.252;2022-09-25T14:04:42;2.13;;;0.43;;
38785;SDS011;24535;45.508;12.252;2022-09-25T14:13:24;1.33;;;0.50;;
38785;SDS011;24535;45.508;12.252;2022-09-25T14:15:52;0.63;;;0.57;;
38785;SDS011;24535;45.508;12.252;2022-09-25T14:18:23;1.05;;;0.40;;
38785;SDS011;24535;45.508;12.252;2022-09-25T14:21:06;10.10;;;1.30;;
38785;SDS011;24535;45.508;12.252;2022-09-25T14:23:34;0.77;;;0.47;;
38785;SDS011;24535;45.508;12.252;2022-09-25T14:29:25;1.33;;;0.52;;
38785;SDS011;24535;45.508;12.252;2022-09-25T15:13:17;1.27;;;0.60;;
38785;SDS011;24535;45.508;12.252;2022-09-25T15:15:45;0.60;;;0.43;;
38785;SDS011;24535;45.508;12.252;2022-09-25T15:21:31;2.17;;;0.80;;
38785;SDS011;24535;45.508;12.252;2022-09-25T15:27:17;0.98;;;0.57;;
38785;SDS011;24535;45.508;12.252;2022-09-25T15:29:52;3.40;;;0.93;;
38785;SDS011;24535;45.508;12.252;2022-09-25T15:35:29;1.73;;;1.17;;
38785;SDS011;24535;45.508;12.252;2022-09-25T15:41:00;1.00;;;0.70;;
38785;SDS011;24535;45.508;12.252;2022-09-25T15:43:26;2.00;;;1.30;;
38785;SDS011;24535;45.508;12.252;2022-09-25T15:45:56;1.23;;;0.82;;
38785;SDS011;24535;45.508;12.252;2022-09-25T15:48:23;3.33;;;1.08;;
38785;SDS011;24535;45.508;12.252;2022-09-25T15:50:54;3.28;;;1.10;;
38785;SDS011;24535;45.508;12.252;2022-09-25T15:55:49;2.83;;;0.98;;
38785;SDS011;24535;45.508;12.252;2022-09-25T15:58:26;2.10;;;0.70;;
38785;SDS011;24535;45.508;12.252;2022-09-25T16:01:01;1.60;;;1.20;;
38785;SDS011;24535;45.508;12.252;2022-09-25T16:06:25;1.80;;;1.23;;
38785;SDS011;24535;45.508;12.252;2022-09-25T16:09:08;1.80;;;1.05;;
38785;SDS011;24535;45.508;12.252;2022-09-25T16:14:46;1.58;;;1.48;;
38785;SDS011;24535;45.508;12.252;2022-09-25T16:19:42;1.90;;;1.58;;
38785;SDS011;24535;45.508;12.252;2022-09-25T16:22:16;3.38;;;1.60;;
38785;SDS011;24535;45.508;12.252;2022-09-25T16:24:49;1.70;;;1.20;;
38785;SDS011;24535;45.508;12.252;2022-09-25T16:30:20;1.95;;;1.33;;
38785;SDS011;24535;45.508;12.252;2022-09-25T16:32:52;1.40;;;0.68;;
38785;SDS011;24535;45.508;12.252;2022-09-25T16:40:41;1.30;;;1.05;;
38785;SDS011;24535;45.508;12.252;2022-09-25T16:43:22;1.10;;;0.80;;
38785;SDS011;24535;45.508;12.252;2022-09-25T16:46:03;1.58;;;0.93;;
38785;SDS011;24535;45.508;12.252;2022-09-25T17:12:50;2.10;;;1.90;;
38785;SDS011;24535;45.508;12.252;2022-09-25T17:18:19;4.40;;;1.58;;
38785;SDS011;24535;45.508;12.252;2022-09-25T17:21:13;2.47;;;2.28;;
38785;SDS011;24535;45.508;12.252;2022-09-25T17:26:55;5.07;;;2.85;;
38785;SDS011;24535;45.508;12.252;2022-09-25T17:29:26;4.20;;;3.03;;
38785;SDS011;24535;45.508;12.252;2022-09-25T17:34:47;3.58;;;2.00;;
38785;SDS011;24535;45.508;12.252;2022-09-25T17:37:12;4.80;;;2.50;;
38785;SDS011;24535;45.508;12.252;2022-09-25T17:39:38;3.30;;;2.60;;
38785;SDS011;24535;45.508;12.252;2022-09-25T17:42:57;4.47;;;2.25;;
38785;SDS011;24535;45.508;12.252;2022-09-25T17:48:30;3.38;;;2.00;;
38785;SDS011;24535;45.508;12.252;2022-09-25T17:51:03;3.55;;;2.78;;
38785;SDS011;24535;45.508;12.252;2022-09-25T17:54:15;3.50;;;2.92;;
38785;SDS011;24535;45.508;12.252;2022-09-25T17:56:41;4.50;;;3.40;;
38785;SDS011;24535;45.508;12.252;2022-09-25T17:59:09;4.95;;;3.20;;
38785;SDS011;24535;45.508;12.252;2022-09-25T18:04:54;2.55;;;2.10;;
38785;SDS011;24535;45.508;12.252;2022-09-25T18:07:19;6.43;;;2.70;;
38785;SDS011;24535;45.508;12.252;2022-09-25T18:09:44;4.05;;;2.95;;
38785;SDS011;24535;45.508;12.252;2022-09-25T18:12:10;2.50;;;2.30;;
38785;SDS011;24535;45.508;12.252;2022-09-25T18:14:39;3.55;;;2.80;;
38785;SDS011;24535;45.508;12.252;2022-09-25T18:17:04;3.17;;;2.80;;
38785;SDS011;24535;45.508;12.252;2022-09-25T18:19:39;4.70;;;3.55;;
38785;SDS011;24535;45.508;12.252;2022-09-25T18:22:23;4.45;;;2.15;;
38785;SDS011;24535;45.508;12.252;2022-09-25T18:24:52;2.72;;;2.00;;
38785;SDS011;24535;45.508;12.252;2022-09-25T18:27:28;3.03;;;2.70;;
38785;SDS011;24535;45.508;12.252;2022-09-25T18:30:00;6.72;;;3.92;;
38785;SDS011;24535;45.508;12.252;2022-09-25T18:32:25;4.88;;;3.15;;
38785;SDS011;24535;45.508;12.252;2022-09-25T18:34:51;2.50;;;2.17;;
38785;SDS011;24535;45.508;12.252;2022-09-25T18:37:18;3.03;;;1.98;;
38785;SDS011;24535;45.508;12.252;2022-09-25T18:39:46;6.03;;;3.85;;
38785;SDS011;24535;45.508;12.252;2022-09-25T18:42:12;5.82;;;4.13;;
38785;SDS011;24535;45.508;12.252;2022-09-25T18:44:39;4.55;;;3.60;;
38785;SDS011;24535;45.508;12.252;2022-09-25T18:47:05;3.58;;;2.10;;
38785;SDS011;24535;45.508;12.252;2022-09-25T18:49:31;3.58;;;2.60;;
38785;SDS011;24535;45.508;12.252;2022-09-25T18:52:02;4.13;;;3.83;;
38785;SDS011;24535;45.508;12.252;2022-09-25T18:54:32;6.95;;;4.25;;
38785;SDS011;24535;45.508;12.252;2022-09-25T19:02:29;5.18;;;4.25;;
38785;SDS011;24535;45.508;12.252;2022-09-25T19:07:50;3.92;;;3.45;;
38785;SDS011;24535;45.508;12.252;2022-09-25T19:16:07;4.75;;;4.30;;
38785;SDS011;24535;45.508;12.252;2022-09-25T19:18:45;4.15;;;3.70;;
38785;SDS011;24535;45.508;12.252;2022-09-25T19:21:15;5.22;;;4.72;;
38785;SDS011;24535;45.508;12.252;2022-09-25T19:23:48;4.18;;;3.78;;
38785;SDS011;24535;45.508;12.252;2022-09-25T19:34:58;6.00;;;4.38;;
38785;SDS011;24535;45.508;12.252;2022-09-25T19:37:27;5.85;;;3.50;;
38785;SDS011;24535;45.508;12.252;2022-09-25T19:42:43;6.78;;;2.92;;
38785;SDS011;24535;45.508;12.252;2022-09-25T19:45:16;3.90;;;3.50;;
38785;SDS011;24535;45.508;12.252;2022-09-25T19:47:42;4.97;;;3.65;;
38785;SDS011;24535;45.508;12.252;2022-09-25T19:50:11;4.90;;;4.15;;
38785;SDS011;24535;45.508;12.252;2022-09-25T19:52:43;5.72;;;5.22;;
38785;SDS011;24535;45.508;12.252;2022-09-25T19:55:25;8.07;;;5.25;;
38785;SDS011;24535;45.508;12.252;2022-09-25T19:57:51;6.90;;;6.20;;
38785;SDS011;24535;45.508;12.252;2022-09-25T20:00:23;6.80;;;5.80;;
38785;SDS011;24535;45.508;12.252;2022-09-25T20:02:49;6.10;;;5.50;;
38785;SDS011;24535;45.508;12.252;2022-09-25T20:05:16;9.27;;;5.82;;
38785;SDS011;24535;45.508;12.252;2022-09-25T20:07:57;5.45;;;4.80;;
38785;SDS011;24535;45.508;12.252;2022-09-25T20:26:06;9.05;;;6.53;;
38785;SDS011;24535;45.508;12.252;2022-09-25T20:28:36;7.97;;;7.22;;
38785;SDS011;24535;45.508;12.252;2022-09-25T20:31:21;7.30;;;6.43;;
38785;SDS011;24535;45.508;12.252;2022-09-25T20:37:05;8.93;;;8.02;;
38785;SDS011;24535;45.508;12.252;2022-09-25T20:39:35;3.42;;;3.13;;
38785;SDS011;24535;45.508;12.252;2022-09-25T20:42:10;3.90;;;3.03;;
38785;SDS011;24535;45.508;12.252;2022-09-25T20:44:49;3.33;;;3.00;;
38785;SDS011;24535;45.508;12.252;2022-09-25T20:47:17;4.65;;;4.18;;
38785;SDS011;24535;45.508;12.252;2022-09-25T20:49:50;3.55;;;3.25;;
38785;SDS011;24535;45.508;12.252;2022-09-25T20:52:16;7.20;;;6.05;;
38785;SDS011;24535;45.508;12.252;2022-09-25T20:54:44;5.82;;;4.82;;
38785;SDS011;24535;45.508;12.252;2022-09-25T20:57:13;5.40;;;3.42;;
38785;SDS011;24535;45.508;12.252;2022-09-25T20:59:42;4.25;;;3.22;;
38785;SDS011;24535;45.508;12.252;2022-09-25T21:02:12;7.32;;;6.63;;
38785;SDS011;24535;45.508;12.252;2022-09-25T21:04:42;9.25;;;8.25;;
38785;SDS011;24535;45.508;12.252;2022-09-25T21:07:11;5.18;;;4.60;;
38785;SDS011;24535;45.508;12.252;2022-09-25T21:09:42;7.20;;;6.50;;
38785;SDS011;24535;45.508;12.252;2022-09-25T21:12:24;6.80;;;6.15;;
38785;SDS011;24535;45.508;12.252;2022-09-25T21:14:58;8.57;;;7.45;;
38785;SDS011;24535;45.508;12.252;2022-09-25T21:17:25;7.85;;;6.18;;
38785;SDS011;24535;45.508;12.252;2022-09-25T21:19:59;8.57;;;7.78;;
38785;SDS011;24535;45.508;12.252;2022-09-25T21:22:28;13.15;;;11.43;;
38785;SDS011;24535;45.508;12.252;2022-09-25T21:25:00;12.80;;;11.50;;
38785;SDS011;24535;45.508;12.252;2022-09-25T21:27:28;12.80;;;11.57;;
38785;SDS011;24535;45.508;12.252;2022-09-25T21:29:57;11.82;;;9.90;;
38785;SDS011;24535;45.508;12.252;2022-09-25T21:32:22;7.55;;;6.75;;
38785;SDS011;24535;45.508;12.252;2022-09-25T21:34:51;9.05;;;8.25;;
38785;SDS011;24535;45.508;12.252;2022-09-25T21:37:26;6.45;;;5.82;;
38785;SDS011;24535;45.508;12.252;2022-09-25T21:39:52;12.00;;;9.02;;
38785;SDS011;24535;45.508;12.252;2022-09-25T21:42:17;6.50;;;5.90;;
38785;SDS011;24535;45.508;12.252;2022-09-25T21:44:43;5.75;;;5.22;;
38785;SDS011;24535;45.508;12.252;2022-09-25T21:47:10;7.45;;;6.00;;
38785;SDS011;24535;45.508;12.252;2022-09-25T21:49:36;3.55;;;3.25;;
38785;SDS011;24535;45.508;12.252;2022-09-25T21:52:03;8.27;;;7.43;;
38785;SDS011;24535;45.508;12.252;2022-09-25T21:54:29;12.90;;;11.52;;
38785;SDS011;24535;45.508;12.252;2022-09-25T21:56:55;4.80;;;4.25;;
38785;SDS011;24535;45.508;12.252;2022-09-25T21:59:20;9.15;;;7.18;;
38785;SDS011;24535;45.508;12.252;2022-09-25T22:01:46;5.15;;;4.15;;
38785;SDS011;24535;45.508;12.252;2022-09-25T22:04:13;6.90;;;6.13;;
38785;SDS011;24535;45.508;12.252;2022-09-25T22:06:40;6.70;;;4.78;;
38785;SDS011;24535;45.508;12.252;2022-09-25T22:09:18;10.85;;;9.77;;
38785;SDS011;24535;45.508;12.252;2022-09-25T22:11:45;15.98;;;14.35;;
38785;SDS011;24535;45.508;12.252;2022-09-25T22:14:11;5.65;;;5.15;;
38785;SDS011;24535;45.508;12.252;2022-09-25T22:16:38;5.75;;;5.25;;
38785;SDS011;24535;45.508;12.252;2022-09-25T22:19:10;9.93;;;8.77;;
38785;SDS011;24535;45.508;12.252;2022-09-25T22:21:38;8.15;;;7.35;;
38785;SDS011;24535;45.508;12.252;2022-09-25T22:24:05;13.32;;;12.02;;
38785;SDS011;24535;45.508;12.252;2022-09-25T22:26:32;15.27;;;13.70;;
38785;SDS011;24535;45.508;12.252;2022-09-25T22:29:00;17.80;;;15.35;;
38785;SDS011;24535;45.508;12.252;2022-09-25T22:31:26;15.43;;;13.25;;
38785;SDS011;24535;45.508;12.252;2022-09-25T22:33:55;6.70;;;6.10;;
38785;SDS011;24535;45.508;12.252;2022-09-25T22:36:24;14.10;;;12.73;;
38785;SDS011;24535;45.508;12.252;2022-09-25T22:38:51;14.80;;;13.32;;
38785;SDS011;24535;45.508;12.252;2022-09-25T22:41:17;12.77;;;10.52;;
38785;SDS011;24535;45.508;12.252;2022-09-25T22:43:43;14.57;;;13.15;;
38785;SDS011;24535;45.508;12.252;2022-09-25T22:46:09;12.98;;;11.63;;
38785;SDS011;24535;45.508;12.252;2022-09-25T22:48:36;19.00;;;17.05;;
38785;SDS011;24535;45.508;12.252;2022-09-25T22:54:14;6.72;;;5.93;;
38785;SDS011;24535;45.508;12.252;2022-09-25T22:56:39;8.43;;;6.55;;
38785;SDS011;24535;45.508;12.252;2022-09-25T22:59:07;12.85;;;10.57;;
38785;SDS011;24535;45.508;12.252;2022-09-25T23:01:45;16.48;;;14.85;;
38785;SDS011;24535;45.508;12.252;2022-09-25T23:04:16;14.10;;;12.60;;
38785;SDS011;24535;45.508;12.252;2022-09-25T23:06:43;18.95;;;16.35;;
38785;SDS011;24535;45.508;12.252;2022-09-25T23:09:10;20.90;;;18.52;;
38785;SDS011;24535;45.508;12.252;2022-09-25T23:11:38;21.40;;;18.97;;
38785;SDS011;24535;45.508;12.252;2022-09-25T23:14:08;10.57;;;8.35;;
38785;SDS011;24535;45.508;12.252;2022-09-25T23:16:38;15.57;;;13.63;;
38785;SDS011;24535;45.508;12.252;2022-09-25T23:19:04;10.85;;;9.70;;
38785;SDS011;24535;45.508;12.252;2022-09-25T23:21:30;14.20;;;12.63;;
38785;SDS011;24535;45.508;12.252;2022-09-25T23:23:56;17.38;;;15.68;;
38785;SDS011;24535;45.508;12.252;2022-09-25T23:26:23;11.45;;;9.45;;
38785;SDS011;24535;45.508;12.252;2022-09-25T23:28:49;10.90;;;9.80;;
38785;SDS011;24535;45.508;12.252;2022-09-25T23:31:15;16.98;;;15.30;;
38785;SDS011;24535;45.508;12.252;2022-09-25T23:33:42;8.80;;;7.85;;
38785;SDS011;24535;45.508;12.252;2022-09-25T23:36:09;18.20;;;16.42;;
38785;SDS011;24535;45.508;12.252;2022-09-25T23:38:37;7.20;;;6.53;;
38785;SDS011;24535;45.508;12.252;2022-09-25T23:41:13;17.48;;;15.55;;
38785;SDS011;24535;45.508;12.252;2022-09-25T23:43:44;25.50;;;22.88;;
38785;SDS011;24535;45.508;12.252;2022-09-25T23:46:11;27.48;;;23.50;;
38785;SDS011;24535;45.508;12.252;2022-09-25T23:48:37;9.48;;;8.63;;
38785;SDS011;24535;45.508;12.252;2022-09-25T23:51:03;11.43;;;10.27;;
38785;SDS011;24535;45.508;12.252;2022-09-25T23:53:41;11.80;;;10.60;;
38785;SDS011;24535;45.508;12.252;2022-09-25T23:58:59;13.85;;;12.35;;
